Time;durP1;ratioP1;P1;durP2;ratioP2;P2;SDS_P1;SDS_P2;PMS_P1;PMS_P2;Temp;Humidity;BMP_temperature;BMP_pressure;BME280_temperature;BME280_humidity;BME280_pressure;Samples;Min_cycle;Max_cycle;Signal;HPM_P1;HPM_P2
2023/08/19 00:00:26;;;;;;;2.20;1.42;;;;;;;;;;5059206;28;20056;-77
2023/08/19 00:03:01;;;;;;;6.78;1.52;;;;;;;;;;5059044;28;20045;-78
2023/08/19 00:05:43;;;;;;;2.92;1.30;;;;;;;;;;5057833;28;20052;-78
2023/08/19 00:08:15;;;;;;;3.53;1.23;;;;;;;;;;5059171;28;20398;-77
2023/08/19 00:10:46;;;;;;;2.17;1.45;;;;;;;;;;5058922;28;20044;-75
2023/08/19 00:13:16;;;;;;;2.75;1.42;;;;;;;;;;5057078;28;20045;-75
2023/08/19 00:15:48;;;;;;;2.83;1.52;;;;;;;;;;5058433;28;20602;-76
2023/08/19 00:18:18;;;;;;;3.17;1.60;;;;;;;;;;5058044;28;20052;-76
2023/08/19 00:20:52;;;;;;;3.20;1.63;;;;;;;;;;5057864;28;20056;-75
2023/08/19 00:23:25;;;;;;;5.20;1.40;;;;;;;;;;5058172;28;20059;-75
2023/08/19 00:25:55;;;;;;;3.80;1.90;;;;;;;;;;5059072;28;20522;-74
2023/08/19 00:28:25;;;;;;;3.47;1.65;;;;;;;;;;5058605;28;20052;-75
2023/08/19 00:30:57;;;;;;;2.88;2.10;;;;;;;;;;5058856;28;20052;-75
2023/08/19 00:33:27;;;;;;;3.00;1.95;;;;;;;;;;5056692;28;20054;-75
2023/08/19 00:36:01;;;;;;;2.45;1.77;;;;;;;;;;5057688;28;20063;-75
2023/08/19 00:38:32;;;;;;;4.50;2.13;;;;;;;;;;5058323;28;20055;-74
2023/08/19 00:41:03;;;;;;;4.50;2.00;;;;;;;;;;5056142;28;20466;-76
2023/08/19 00:43:36;;;;;;;4.97;2.17;;;;;;;;;;5040874;28;20052;-76
2023/08/19 00:46:08;;;;;;;2.65;2.03;;;;;;;;;;5058605;28;20051;-75
2023/08/19 00:48:39;;;;;;;6.05;2.10;;;;;;;;;;5058610;28;20526;-76
2023/08/19 00:51:10;;;;;;;3.85;2.05;;;;;;;;;;5058000;28;20040;-76
2023/08/19 00:53:40;;;;;;;4.97;1.95;;;;;;;;;;5058095;28;20068;-76
2023/08/19 00:56:12;;;;;;;3.85;1.90;;;;;;;;;;5056071;28;20851;-76
2023/08/19 00:58:44;;;;;;;2.92;1.75;;;;;;;;;;5057134;28;20077;-75
2023/08/19 01:01:15;;;;;;;4.35;2.15;;;;;;;;;;5061982;28;20052;-76
2023/08/19 01:03:46;;;;;;;4.13;1.90;;;;;;;;;;5061665;28;20044;-76
2023/08/19 01:06:39;;;;;;;2.75;1.75;;;;;;;;;;5060292;28;20077;-76
2023/08/19 01:09:28;;;;;;;2.35;1.75;;;;;;;;;;5060211;28;20037;-76
2023/08/19 01:12:17;;;;;;;3.47;2.00;;;;;;;;;;5061523;28;20483;-76
2023/08/19 01:15:09;;;;;;;5.32;2.30;;;;;;;;;;5061967;28;20510;-76
2023/08/19 01:17:41;;;;;;;3.50;2.30;;;;;;;;;;5061656;28;20044;-77
2023/08/19 01:20:14;;;;;;;2.88;2.13;;;;;;;;;;5061115;28;20068;-76
2023/08/19 01:22:59;;;;;;;4.63;2.42;;;;;;;;;;5060043;28;20511;-76
2023/08/19 01:25:32;;;;;;;4.38;2.60;;;;;;;;;;5061780;28;20059;-76
2023/08/19 01:28:05;;;;;;;9.25;4.88;;;;;;;;;;5061917;28;20497;-76
2023/08/19 01:30:35;;;;;;;5.60;2.67;;;;;;;;;;5059349;28;20407;-76
2023/08/19 01:33:06;;;;;;;3.40;2.05;;;;;;;;;;5061454;28;20521;-77
2023/08/19 01:35:42;;;;;;;3.80;2.40;;;;;;;;;;5059585;28;20055;-78
2023/08/19 01:38:18;;;;;;;;;;;;;;;;;;5061934;28;20446;-76
2023/08/19 01:40:50;;;;;;;5.32;2.45;;;;;;;;;;5060816;28;19924;-76
2023/08/19 01:43:21;;;;;;;4.15;2.17;;;;;;;;;;5060056;28;20048;-76
2023/08/19 01:45:51;;;;;;;2.92;2.30;;;;;;;;;;5059883;28;20064;-76
2023/08/19 01:48:23;;;;;;;5.82;2.40;;;;;;;;;;5061015;28;20048;-76
2023/08/19 01:50:54;;;;;;;5.18;2.05;;;;;;;;;;5059361;28;20048;-75
2023/08/19 01:53:24;;;;;;;4.18;2.33;;;;;;;;;;5059425;28;20048;-77
2023/08/19 01:55:54;;;;;;;7.18;2.20;;;;;;;;;;5061288;28;20053;-76
2023/08/19 01:58:25;;;;;;;3.72;2.45;;;;;;;;;;5059815;28;20070;-75
2023/08/19 02:00:56;;;;;;;5.07;2.40;;;;;;;;;;5059043;28;20075;-74
2023/08/19 02:03:26;;;;;;;2.97;2.08;;;;;;;;;;5061030;28;20040;-76
2023/08/19 02:05:57;;;;;;;4.15;2.50;;;;;;;;;;5057826;28;20057;-75
2023/08/19 02:08:27;;;;;;;4.82;2.28;;;;;;;;;;5058346;28;20427;-76
2023/08/19 02:10:58;;;;;;;7.47;2.53;;;;;;;;;;5059711;28;20526;-75
2023/08/19 02:13:29;;;;;;;7.22;2.78;;;;;;;;;;5059090;28;20053;-75
2023/08/19 02:15:59;;;;;;;6.38;2.50;;;;;;;;;;5060105;28;20067;-75
2023/08/19 02:18:30;;;;;;;3.25;2.22;;;;;;;;;;5058193;28;20503;-75
2023/08/19 02:21:01;;;;;;;5.03;2.85;;;;;;;;;;5060382;28;20067;-76
2023/08/19 02:23:31;;;;;;;5.85;2.53;;;;;;;;;;5042222;28;20060;-75
2023/08/19 02:26:02;;;;;;;3.20;2.30;;;;;;;;;;5060377;28;20051;-75
2023/08/19 02:28:32;;;;;;;12.27;3.58;;;;;;;;;;5058922;28;20075;-76
2023/08/19 02:31:04;;;;;;;6.63;2.83;;;;;;;;;;5059961;28;20036;-76
2023/08/19 02:33:36;;;;;;;4.15;2.72;;;;;;;;;;5058925;28;20071;-75
2023/08/19 02:36:07;;;;;;;4.38;2.88;;;;;;;;;;5060534;28;20048;-75
2023/08/19 02:38:37;;;;;;;3.85;2.75;;;;;;;;;;5058636;28;20051;-75
2023/08/19 02:41:09;;;;;;;5.15;2.40;;;;;;;;;;5060455;28;20056;-74
2023/08/19 02:43:40;;;;;;;4.22;2.60;;;;;;;;;;5059255;28;20045;-75
2023/08/19 02:46:10;;;;;;;5.95;2.80;;;;;;;;;;5058488;28;20053;-76
2023/08/19 02:48:42;;;;;;;5.43;2.55;;;;;;;;;;5059947;28;20052;-75
2023/08/19 02:51:13;;;;;;;4.43;2.60;;;;;;;;;;5059686;28;20049;-74
2023/08/19 02:53:43;;;;;;;4.65;2.50;;;;;;;;;;5058781;28;21022;-75
2023/08/19 02:56:13;;;;;;;6.25;2.03;;;;;;;;;;5059917;28;20178;-74
2023/08/19 02:58:45;;;;;;;3.33;2.30;;;;;;;;;;5059655;28;20048;-75
2023/08/19 03:01:16;;;;;;;5.63;2.28;;;;;;;;;;5058445;28;20063;-75
2023/08/19 03:03:46;;;;;;;4.03;2.50;;;;;;;;;;5059809;28;20415;-76
2023/08/19 03:06:16;;;;;;;4.53;2.83;;;;;;;;;;5059787;28;20048;-76
2023/08/19 03:08:47;;;;;;;4.80;3.03;;;;;;;;;;5057822;28;20071;-75
2023/08/19 03:11:18;;;;;;;4.32;2.78;;;;;;;;;;5058152;28;20060;-75
2023/08/19 03:13:49;;;;;;;5.95;2.72;;;;;;;;;;5057443;28;20056;-76
2023/08/19 03:16:19;;;;;;;5.10;3.20;;;;;;;;;;5060442;28;20060;-76
2023/08/19 03:18:49;;;;;;;5.22;2.53;;;;;;;;;;5060336;28;20048;-76
2023/08/19 03:21:20;;;;;;;2.65;2.13;;;;;;;;;;5060103;28;20067;-75
2023/08/19 03:23:51;;;;;;;5.60;2.67;;;;;;;;;;5060762;28;20059;-76
2023/08/19 03:26:23;;;;;;;4.75;2.28;;;;;;;;;;5060725;28;20048;-75
2023/08/19 03:28:54;;;;;;;3.70;2.30;;;;;;;;;;5060577;28;20052;-75
2023/08/19 03:31:25;;;;;;;4.03;2.55;;;;;;;;;;5061974;28;20048;-75
2023/08/19 03:33:56;;;;;;;4.07;2.00;;;;;;;;;;5060284;28;20052;-75
2023/08/19 03:36:26;;;;;;;4.57;2.40;;;;;;;;;;5060455;28;20053;-77
2023/08/19 03:39:04;;;;;;;4.13;2.05;;;;;;;;;;5060716;28;20052;-76
2023/08/19 03:41:34;;;;;;;4.75;2.17;;;;;;;;;;5060682;28;20052;-74
2023/08/19 03:44:06;;;;;;;4.97;2.13;;;;;;;;;;5060020;28;20052;-74
2023/08/19 03:46:37;;;;;;;3.95;2.40;;;;;;;;;;5062976;28;20055;-76
2023/08/19 03:49:07;;;;;;;3.60;2.38;;;;;;;;;;5062307;28;20044;-76
2023/08/19 03:51:37;;;;;;;4.80;2.05;;;;;;;;;;5060269;28;20071;-77
2023/08/19 03:54:08;;;;;;;5.53;2.13;;;;;;;;;;5062149;28;20040;-76
2023/08/19 03:56:39;;;;;;;5.75;2.45;;;;;;;;;;5059749;28;20064;-80
2023/08/19 03:59:10;;;;;;;3.67;2.10;;;;;;;;;;5062021;28;20064;-76
2023/08/19 04:01:40;;;;;;;4.18;2.13;;;;;;;;;;5060097;28;20063;-76
2023/08/19 04:04:11;;;;;;;7.43;2.50;;;;;;;;;;5061388;28;20063;-75
2023/08/19 04:06:42;;;;;;;3.38;1.95;;;;;;;;;;5061423;28;20424;-76
2023/08/19 04:09:13;;;;;;;5.28;2.20;;;;;;;;;;5061045;28;20403;-75
2023/08/19 04:11:43;;;;;;;3.88;2.03;;;;;;;;;;5059965;28;20056;-76
2023/08/19 04:14:14;;;;;;;1.88;1.30;;;;;;;;;;5062793;28;20044;-76
2023/08/19 04:16:46;;;;;;;4.95;0.88;;;;;;;;;;5060560;28;20423;-78
2023/08/19 04:19:16;;;;;;;1.80;1.27;;;;;;;;;;5060985;28;20044;-77
2023/08/19 04:21:46;;;;;;;0.77;0.50;;;;;;;;;;5062787;28;20435;-74
2023/08/19 04:24:17;;;;;;;0.65;0.57;;;;;;;;;;5064443;28;20055;-75
2023/08/19 04:26:48;;;;;;;1.58;0.60;;;;;;;;;;5063101;28;20530;-73
2023/08/19 04:29:19;;;;;;;0.35;0.35;;;;;;;;;;5062924;28;20048;-76
2023/08/19 04:31:49;;;;;;;0.40;0.35;;;;;;;;;;5063602;28;20048;-77
2023/08/19 04:34:21;;;;;;;0.45;0.32;;;;;;;;;;5066357;28;20590;-77
2023/08/19 04:36:52;;;;;;;0.40;0.32;;;;;;;;;;5066140;28;20492;-77
2023/08/19 04:39:23;;;;;;;1.00;0.40;;;;;;;;;;5066724;28;20075;-77
2023/08/19 04:41:59;;;;;;;0.28;0.28;;;;;;;;;;5067509;28;20503;-77
2023/08/19 04:44:31;;;;;;;0.30;0.22;;;;;;;;;;5065819;28;20413;-75
2023/08/19 04:47:03;;;;;;;0.90;0.30;;;;;;;;;;5066834;28;20059;-74
2023/08/19 04:49:35;;;;;;;0.35;0.20;;;;;;;;;;5065003;28;20060;-76
2023/08/19 04:52:06;;;;;;;0.30;0.30;;;;;;;;;;5065098;28;20055;-74
2023/08/19 04:54:37;;;;;;;1.42;0.30;;;;;;;;;;5063760;28;20049;-74
2023/08/19 04:57:08;;;;;;;0.20;0.20;;;;;;;;;;5064205;28;20055;-77
2023/08/19 04:59:39;;;;;;;0.30;0.30;;;;;;;;;;5063779;28;20052;-75
2023/08/19 05:02:09;;;;;;;0.28;0.20;;;;;;;;;;5065240;28;20052;-75
2023/08/19 05:04:40;;;;;;;0.30;0.30;;;;;;;;;;5065789;28;20059;-74
2023/08/19 05:07:11;;;;;;;0.40;0.20;;;;;;;;;;5066466;28;20056;-75
2023/08/19 05:09:42;;;;;;;5.25;0.70;;;;;;;;;;5064099;28;20056;-74
2023/08/19 05:12:12;;;;;;;0.45;0.30;;;;;;;;;;5065919;28;20060;-75
2023/08/19 05:14:43;;;;;;;0.45;0.30;;;;;;;;;;5065244;28;20063;-75
2023/08/19 05:17:14;;;;;;;2.83;0.38;;;;;;;;;;5065034;28;20041;-75
2023/08/19 05:19:45;;;;;;;1.73;0.47;;;;;;;;;;5063636;28;20079;-76
2023/08/19 05:22:15;;;;;;;0.63;0.47;;;;;;;;;;5062967;28;20590;-77
2023/08/19 05:24:46;;;;;;;0.75;0.50;;;;;;;;;;5064830;28;20040;-76
2023/08/19 05:27:17;;;;;;;1.02;0.60;;;;;;;;;;5063255;28;20079;-76
2023/08/19 05:29:48;;;;;;;0.63;0.50;;;;;;;;;;5067233;28;20063;-75
2023/08/19 05:32:18;;;;;;;1.27;0.50;;;;;;;;;;5066558;28;20386;-76
2023/08/19 05:34:48;;;;;;;2.20;0.50;;;;;;;;;;5066747;28;20045;-77
2023/08/19 05:37:20;;;;;;;0.82;0.40;;;;;;;;;;5067404;28;20056;-74
2023/08/19 05:39:50;;;;;;;0.70;0.40;;;;;;;;;;5066002;28;21017;-75
2023/08/19 05:42:20;;;;;;;0.68;0.40;;;;;;;;;;5065759;28;20044;-75
2023/08/19 05:44:50;;;;;;;1.63;0.50;;;;;;;;;;5067126;28;20040;-75
2023/08/19 05:47:20;;;;;;;0.32;0.30;;;;;;;;;;5066564;28;20041;-75
2023/08/19 05:49:55;;;;;;;1.73;0.30;;;;;;;;;;5066805;28;20558;-75
2023/08/19 05:52:25;;;;;;;0.40;0.40;;;;;;;;;;5065746;28;20500;-73
2023/08/19 05:54:56;;;;;;;0.73;0.45;;;;;;;;;;5065946;28;20053;-75
2023/08/19 05:57:30;;;;;;;0.60;0.30;;;;;;;;;;5067208;28;20053;-76
2023/08/19 06:00:01;;;;;;;0.57;0.40;;;;;;;;;;5066886;28;20056;-75
2023/08/19 06:02:39;;;;;;;1.00;0.40;;;;;;;;;;5069856;28;20056;-75
2023/08/19 06:05:10;;;;;;;1.63;0.38;;;;;;;;;;5064199;28;20530;-76
2023/08/19 06:07:41;;;;;;;0.30;0.30;;;;;;;;;;5064312;28;20051;-76
2023/08/19 06:10:12;;;;;;;0.30;0.30;;;;;;;;;;5066167;28;20052;-75
2023/08/19 06:12:42;;;;;;;0.20;0.20;;;;;;;;;;5064917;28;20055;-73
2023/08/19 06:15:12;;;;;;;0.40;0.15;;;;;;;;;;5064578;28;20514;-74
2023/08/19 06:17:45;;;;;;;0.38;0.38;;;;;;;;;;5065064;28;20044;-75
2023/08/19 06:20:15;;;;;;;1.63;0.55;;;;;;;;;;5063867;28;20052;-74
2023/08/19 06:22:46;;;;;;;2.08;0.40;;;;;;;;;;5064367;28;20067;-76
2023/08/19 06:25:16;;;;;;;0.32;0.32;;;;;;;;;;5064153;28;20512;-74
2023/08/19 06:27:46;;;;;;;0.30;0.30;;;;;;;;;;5064093;28;20044;-75
2023/08/19 06:30:17;;;;;;;0.40;0.40;;;;;;;;;;5061522;28;20052;-75
2023/08/19 06:32:47;;;;;;;0.93;0.30;;;;;;;;;;5063050;28;20036;-74
2023/08/19 06:35:18;;;;;;;1.13;0.60;;;;;;;;;;5063271;28;20045;-76
2023/08/19 06:37:53;;;;;;;1.00;0.40;;;;;;;;;;5064157;28;20487;-74
2023/08/19 06:40:27;;;;;;;1.10;0.32;;;;;;;;;;5063796;28;20056;-75
2023/08/19 06:43:00;;;;;;;0.30;0.30;;;;;;;;;;5062694;28;20423;-74
2023/08/19 06:45:30;;;;;;;2.33;0.40;;;;;;;;;;5062959;28;20045;-75
2023/08/19 06:48:03;;;;;;;0.63;0.43;;;;;;;;;;5064408;28;20052;-74
2023/08/19 06:50:34;;;;;;;0.73;0.40;;;;;;;;;;5066352;28;20168;-76
2023/08/19 06:53:09;;;;;;;0.68;0.40;;;;;;;;;;5069103;28;20056;-74
2023/08/19 06:55:42;;;;;;;0.40;0.40;;;;;;;;;;5066123;28;20415;-76
2023/08/19 06:58:20;;;;;;;2.38;0.50;;;;;;;;;;5065974;28;20506;-76
2023/08/19 07:00:56;;;;;;;0.50;0.50;;;;;;;;;;5066295;28;20049;-75
2023/08/19 07:03:34;;;;;;;0.45;0.45;;;;;;;;;;5067372;28;20052;-74
2023/08/19 07:06:06;;;;;;;0.50;0.50;;;;;;;;;;5066461;28;20054;-73
2023/08/19 07:08:40;;;;;;;0.60;0.50;;;;;;;;;;5067592;28;20044;-75
2023/08/19 07:11:11;;;;;;;6.18;0.80;;;;;;;;;;5066722;28;20048;-75
2023/08/19 07:13:42;;;;;;;1.55;0.90;;;;;;;;;;5067575;28;20059;-73
2023/08/19 07:16:16;;;;;;;1.25;0.93;;;;;;;;;;5066801;28;20139;-75
2023/08/19 07:18:51;;;;;;;1.33;0.80;;;;;;;;;;5067632;28;20040;-74
2023/08/19 07:21:26;;;;;;;3.83;1.35;;;;;;;;;;5067696;28;20052;-77
2023/08/19 07:23:59;;;;;;;5.57;1.30;;;;;;;;;;5065984;28;20052;-76
2023/08/19 07:26:32;;;;;;;1.52;1.23;;;;;;;;;;5067296;28;20602;-74
2023/08/19 07:29:02;;;;;;;2.25;1.42;;;;;;;;;;5067164;28;20605;-74
2023/08/19 07:31:33;;;;;;;2.47;1.35;;;;;;;;;;5048676;28;20072;-72
2023/08/19 07:34:04;;;;;;;1.65;1.08;;;;;;;;;;5064750;28;20419;-77
2023/08/19 07:36:34;;;;;;;2.90;1.00;;;;;;;;;;5063744;28;20913;-77
2023/08/19 07:39:05;;;;;;;2.08;1.30;;;;;;;;;;5065089;28;20051;-75
2023/08/19 07:41:36;;;;;;;1.52;1.00;;;;;;;;;;5066791;28;20045;-74
2023/08/19 07:44:07;;;;;;;2.97;1.15;;;;;;;;;;5064812;28;20625;-74
2023/08/19 07:46:37;;;;;;;2.47;1.02;;;;;;;;;;5065039;28;20052;-75
2023/08/19 07:49:08;;;;;;;0.93;0.80;;;;;;;;;;5066093;28;20047;-74
2023/08/19 07:51:38;;;;;;;2.42;0.80;;;;;;;;;;5065106;28;20055;-73
2023/08/19 07:54:10;;;;;;;0.80;0.63;;;;;;;;;;5062662;28;20048;-74
2023/08/19 07:56:40;;;;;;;0.55;0.55;;;;;;;;;;5064208;28;20511;-76
2023/08/19 07:59:10;;;;;;;1.05;0.63;;;;;;;;;;5064488;28;20052;-78
2023/08/19 08:01:40;;;;;;;2.08;0.70;;;;;;;;;;5064139;28;20346;-74
2023/08/19 08:04:11;;;;;;;0.75;0.60;;;;;;;;;;5062777;28;20415;-76
2023/08/19 08:06:41;;;;;;;0.55;0.55;;;;;;;;;;5063455;28;20512;-76
2023/08/19 08:09:11;;;;;;;0.50;0.50;;;;;;;;;;5064396;28;20048;-76
2023/08/19 08:11:44;;;;;;;2.45;0.65;;;;;;;;;;5066283;28;20903;-76
2023/08/19 08:14:16;;;;;;;0.75;0.52;;;;;;;;;;5064542;28;20738;-74
2023/08/19 08:16:46;;;;;;;1.20;0.50;;;;;;;;;;5065242;28;20052;-76
2023/08/19 08:19:16;;;;;;;1.95;0.70;;;;;;;;;;5065509;28;20475;-75
2023/08/19 08:21:48;;;;;;;0.88;0.73;;;;;;;;;;5066455;28;20554;-75
2023/08/19 08:24:19;;;;;;;4.78;0.75;;;;;;;;;;5064073;28;20048;-73
2023/08/19 08:26:50;;;;;;;2.25;0.50;;;;;;;;;;5064977;28;20049;-76
2023/08/19 08:29:20;;;;;;;0.70;0.60;;;;;;;;;;5065040;28;20350;-75
2023/08/19 08:31:51;;;;;;;1.95;0.63;;;;;;;;;;5065578;28;20040;-74
2023/08/19 08:34:22;;;;;;;0.68;0.63;;;;;;;;;;5064853;28;20526;-75
2023/08/19 08:36:52;;;;;;;1.60;0.63;;;;;;;;;;5064875;28;20052;-74
2023/08/19 08:39:23;;;;;;;5.28;0.80;;;;;;;;;;5065357;28;20053;-75
2023/08/19 08:41:54;;;;;;;1.08;0.60;;;;;;;;;;5064265;28;20047;-75
2023/08/19 08:44:27;;;;;;;0.57;0.50;;;;;;;;;;5065440;28;20832;-75
2023/08/19 08:46:58;;;;;;;3.55;0.80;;;;;;;;;;5065435;28;20044;-75
2023/08/19 08:49:29;;;;;;;2.00;0.63;;;;;;;;;;5065527;28;20060;-75
2023/08/19 08:52:00;;;;;;;3.13;0.60;;;;;;;;;;5065407;28;20052;-75
2023/08/19 08:54:35;;;;;;;0.88;0.73;;;;;;;;;;5064903;28;20052;-75
2023/08/19 08:57:05;;;;;;;2.08;0.63;;;;;;;;;;5064883;28;20052;-76
2023/08/19 08:59:35;;;;;;;0.63;0.63;;;;;;;;;;5063347;28;20459;-75
2023/08/19 09:02:11;;;;;;;0.80;0.70;;;;;;;;;;5063292;28;20055;-74
2023/08/19 09:04:48;;;;;;;3.20;0.70;;;;;;;;;;5064120;28;20419;-73
2023/08/19 09:07:30;;;;;;;0.82;0.70;;;;;;;;;;5064245;28;20051;-74
2023/08/19 09:10:02;;;;;;;2.80;0.70;;;;;;;;;;5064279;28;20040;-76
2023/08/19 09:12:35;;;;;;;1.90;1.00;;;;;;;;;;5063216;28;20814;-76
2023/08/19 09:15:06;;;;;;;1.23;0.73;;;;;;;;;;5065540;28;20051;-75
2023/08/19 09:17:38;;;;;;;3.17;0.77;;;;;;;;;;5064411;28;20052;-74
2023/08/19 09:20:09;;;;;;;1.35;0.80;;;;;;;;;;5064356;28;20048;-75
2023/08/19 09:22:42;;;;;;;1.05;0.70;;;;;;;;;;5064583;28;20056;-75
2023/08/19 09:25:16;;;;;;;3.00;1.00;;;;;;;;;;5064257;28;20411;-75
2023/08/19 09:27:47;;;;;;;3.53;0.80;;;;;;;;;;5064477;28;20045;-76
2023/08/19 09:30:17;;;;;;;0.57;0.57;;;;;;;;;;5064235;28;20047;-75
2023/08/19 09:32:48;;;;;;;1.50;0.50;;;;;;;;;;5064641;28;20052;-76
2023/08/19 09:35:18;;;;;;;3.85;0.90;;;;;;;;;;5064434;28;20048;-76
2023/08/19 09:37:48;;;;;;;2.25;0.73;;;;;;;;;;5064018;28;20052;-75
2023/08/19 09:40:21;;;;;;;0.80;0.80;;;;;;;;;;5064352;28;20052;-75
2023/08/19 09:42:52;;;;;;;1.08;0.80;;;;;;;;;;5064473;28;20060;-75
2023/08/19 09:45:24;;;;;;;1.00;0.80;;;;;;;;;;5064528;28;20060;-74
2023/08/19 09:47:55;;;;;;;2.45;1.33;;;;;;;;;;5061960;28;20056;-75
2023/08/19 09:50:27;;;;;;;3.65;0.75;;;;;;;;;;5064041;28;20846;-74
2023/08/19 09:52:59;;;;;;;0.60;0.60;;;;;;;;;;5063868;28;20407;-76
2023/08/19 09:55:34;;;;;;;0.60;0.60;;;;;;;;;;5064260;28;20044;-74
2023/08/19 09:58:05;;;;;;;2.80;0.77;;;;;;;;;;5064050;28;20052;-76
2023/08/19 10:00:35;;;;;;;1.13;0.73;;;;;;;;;;5064340;28;20047;-78
2023/08/19 10:03:06;;;;;;;1.08;0.95;;;;;;;;;;5064224;28;20489;-76
2023/08/19 10:05:40;;;;;;;3.45;0.80;;;;;;;;;;5063969;28;20063;-76
2023/08/19 10:08:31;;;;;;;1.10;0.63;;;;;;;;;;5064399;28;20052;-73
2023/08/19 10:11:03;;;;;;;0.80;0.63;;;;;;;;;;5064210;28;20049;-74
2023/08/19 10:13:34;;;;;;;0.93;0.55;;;;;;;;;;5064748;28;20517;-73
2023/08/19 10:16:06;;;;;;;1.25;0.80;;;;;;;;;;5063108;28;20499;-74
2023/08/19 10:18:39;;;;;;;0.80;0.75;;;;;;;;;;5063041;28;20052;-75
2023/08/19 10:21:14;;;;;;;2.75;0.90;;;;;;;;;;5066048;28;20495;-75
2023/08/19 10:23:46;;;;;;;1.58;0.75;;;;;;;;;;5067363;28;20048;-75
2023/08/19 10:26:17;;;;;;;3.75;1.13;;;;;;;;;;5062989;28;20502;-75
2023/08/19 10:29:08;;;;;;;6.25;0.93;;;;;;;;;;5070349;28;20484;-72
2023/08/19 10:31:40;;;;;;;0.95;0.77;;;;;;;;;;5064803;28;20124;-72
2023/08/19 10:34:28;;;;;;;3.35;1.40;;;;;;;;;;5062879;28;20056;-74
2023/08/19 10:37:08;;;;;;;;;;;;;;;;;;5063635;28;20048;-74
2023/08/19 10:39:38;;;;;;;1.83;0.98;;;;;;;;;;5062038;28;19924;-74
2023/08/19 10:42:10;;;;;;;1.77;1.13;;;;;;;;;;5061947;28;20049;-75
2023/08/19 10:44:41;;;;;;;2.20;0.90;;;;;;;;;;5061654;28;20056;-75
2023/08/19 10:47:16;;;;;;;2.28;1.27;;;;;;;;;;5063524;28;20040;-74
2023/08/19 10:49:47;;;;;;;3.00;1.00;;;;;;;;;;5062996;28;20044;-74
2023/08/19 10:52:21;;;;;;;3.45;1.02;;;;;;;;;;5062201;28;20384;-74
2023/08/19 10:54:51;;;;;;;1.88;0.75;;;;;;;;;;5062335;28;20052;-75
2023/08/19 10:57:26;;;;;;;1.00;0.70;;;;;;;;;;5062832;28;20899;-75
2023/08/19 10:59:59;;;;;;;1.38;0.90;;;;;;;;;;5062705;28;20040;-75
2023/08/19 11:02:31;;;;;;;2.10;1.50;;;;;;;;;;5062534;28;20429;-74
2023/08/19 11:05:03;;;;;;;2.10;0.90;;;;;;;;;;5060630;28;20621;-75
2023/08/19 11:07:45;;;;;;;3.38;2.20;;;;;;;;;;5061827;28;20049;-75
2023/08/19 11:10:16;;;;;;;5.13;1.00;;;;;;;;;;5062345;28;20044;-76
2023/08/19 11:12:53;;;;;;;2.85;0.80;;;;;;;;;;5062957;28;20051;-76
2023/08/19 11:15:27;;;;;;;3.10;0.90;;;;;;;;;;5062445;28;20075;-75
2023/08/19 11:17:58;;;;;;;2.47;0.90;;;;;;;;;;5062792;28;20044;-76
2023/08/19 11:20:29;;;;;;;2.80;0.88;;;;;;;;;;5062413;28;20053;-75
2023/08/19 11:23:00;;;;;;;1.05;0.85;;;;;;;;;;5062598;28;20044;-76
2023/08/19 11:25:36;;;;;;;1.80;0.80;;;;;;;;;;5062031;28;20052;-75
2023/08/19 11:28:07;;;;;;;2.30;0.63;;;;;;;;;;5062035;28;20055;-76
2023/08/19 11:30:37;;;;;;;4.88;0.90;;;;;;;;;;5061334;28;20496;-75
2023/08/19 11:33:08;;;;;;;1.70;0.70;;;;;;;;;;5062010;28;20059;-76
2023/08/19 11:35:43;;;;;;;11.65;1.23;;;;;;;;;;5061701;28;20071;-76
2023/08/19 11:38:16;;;;;;;3.72;0.90;;;;;;;;;;5061932;28;20045;-78
2023/08/19 11:40:50;;;;;;;1.27;0.90;;;;;;;;;;5062583;28;20055;-76
2023/08/19 11:43:23;;;;;;;3.08;0.80;;;;;;;;;;5059960;28;20534;-76
2023/08/19 11:45:55;;;;;;;3.65;0.80;;;;;;;;;;5061456;28;20052;-75
2023/08/19 11:48:26;;;;;;;3.08;0.70;;;;;;;;;;5061132;28;20056;-78
2023/08/19 11:50:56;;;;;;;2.35;0.50;;;;;;;;;;5062405;28;20049;-76
2023/08/19 11:53:29;;;;;;;7.72;0.88;;;;;;;;;;5059747;28;20047;-76
2023/08/19 11:56:00;;;;;;;1.10;0.60;;;;;;;;;;5061906;28;20055;-81
2023/08/19 11:58:57;;;;;;;2.45;0.75;;;;;;;;;;5061636;28;20048;-75
2023/08/19 12:01:27;;;;;;;0.55;0.50;;;;;;;;;;5061176;28;20063;-76
2023/08/19 12:03:59;;;;;;;0.70;0.65;;;;;;;;;;5061066;28;20054;-76
2023/08/19 12:06:32;;;;;;;1.70;0.50;;;;;;;;;;5061911;28;20040;-76
2023/08/19 12:09:03;;;;;;;9.48;0.70;;;;;;;;;;5061694;28;20052;-76
2023/08/19 12:11:35;;;;;;;1.95;0.70;;;;;;;;;;5044351;28;20048;-76
2023/08/19 12:14:07;;;;;;;1.08;0.55;;;;;;;;;;5061599;28;20052;-76
2023/08/19 12:16:38;;;;;;;1.00;0.60;;;;;;;;;;5060578;28;20045;-76
2023/08/19 12:19:08;;;;;;;1.23;0.70;;;;;;;;;;5060255;28;20045;-75
2023/08/19 12:21:38;;;;;;;1.90;0.57;;;;;;;;;;5061091;28;20063;-76
2023/08/19 12:24:09;;;;;;;2.95;1.10;;;;;;;;;;5061913;28;20052;-77
2023/08/19 12:26:40;;;;;;;0.90;0.50;;;;;;;;;;5061078;28;20071;-77
2023/08/19 12:29:11;;;;;;;4.80;0.90;;;;;;;;;;5061615;28;20053;-78
2023/08/19 12:31:41;;;;;;;1.65;0.50;;;;;;;;;;5061366;28;20501;-76
2023/08/19 12:34:14;;;;;;;1.23;0.70;;;;;;;;;;5061194;28;20052;-77
2023/08/19 12:36:45;;;;;;;4.72;0.82;;;;;;;;;;5062125;28;20041;-77
2023/08/19 12:39:15;;;;;;;0.82;0.40;;;;;;;;;;5061856;28;20513;-76
2023/08/19 12:41:47;;;;;;;1.75;0.70;;;;;;;;;;5061727;28;20055;-75
2023/08/19 12:44:19;;;;;;;0.50;0.50;;;;;;;;;;5061256;28;20048;-76
2023/08/19 12:46:51;;;;;;;0.32;0.32;;;;;;;;;;5060966;28;20586;-76
2023/08/19 12:49:22;;;;;;;1.17;0.55;;;;;;;;;;5060950;28;20400;-76
2023/08/19 12:51:52;;;;;;;1.38;0.50;;;;;;;;;;5060669;28;20518;-75
2023/08/19 12:54:23;;;;;;;0.55;0.50;;;;;;;;;;5061223;28;20059;-78
2023/08/19 12:56:53;;;;;;;2.70;0.32;;;;;;;;;;5064971;28;20047;-76
2023/08/19 12:59:25;;;;;;;0.40;0.32;;;;;;;;;;5064791;28;20045;-77
2023/08/19 13:01:54;;;;;;;5.13;0.70;;;;;;;;;;5064671;28;20396;-75
2023/08/19 13:04:25;;;;;;;4.18;0.75;;;;;;;;;;5063328;28;20053;-75
2023/08/19 13:06:56;;;;;;;0.95;0.40;;;;;;;;;;5064991;28;20419;-75
2023/08/19 13:09:27;;;;;;;0.35;0.32;;;;;;;;;;5065331;28;20451;-78
2023/08/19 13:11:58;;;;;;;0.30;0.30;;;;;;;;;;5065334;28;20045;-75
2023/08/19 13:14:28;;;;;;;0.57;0.43;;;;;;;;;;5065144;28;20045;-75
2023/08/19 13:16:59;;;;;;;0.95;0.60;;;;;;;;;;5064012;28;20048;-77
2023/08/19 13:19:30;;;;;;;1.40;0.70;;;;;;;;;;5064466;28;20887;-76
2023/08/19 13:22:00;;;;;;;2.58;0.80;;;;;;;;;;5062827;28;20060;-80
2023/08/19 13:24:30;;;;;;;4.03;0.70;;;;;;;;;;5064920;28;20052;-76
2023/08/19 13:27:01;;;;;;;0.55;0.40;;;;;;;;;;5064909;28;20048;-77
2023/08/19 13:29:32;;;;;;;3.53;0.68;;;;;;;;;;5065032;28;20068;-75
2023/08/19 13:32:02;;;;;;;8.10;2.08;;;;;;;;;;5063205;28;20056;-75
2023/08/19 13:34:33;;;;;;;1.17;0.40;;;;;;;;;;5063838;28;20075;-77
2023/08/19 13:37:05;;;;;;;1.27;0.30;;;;;;;;;;5064382;28;20056;-76
2023/08/19 13:39:36;;;;;;;1.27;0.60;;;;;;;;;;5064948;28;20055;-77
2023/08/19 13:42:06;;;;;;;2.30;0.40;;;;;;;;;;5064754;28;20045;-75
2023/08/19 13:44:38;;;;;;;0.75;0.30;;;;;;;;;;5064620;28;20041;-78
2023/08/19 13:47:08;;;;;;;5.03;0.40;;;;;;;;;;5064083;28;20419;-76
2023/08/19 13:49:39;;;;;;;0.90;0.55;;;;;;;;;;5063673;28;20053;-79
2023/08/19 13:52:34;;;;;;;0.30;0.30;;;;;;;;;;5063749;28;20371;-75
2023/08/19 13:55:12;;;;;;;0.88;0.77;;;;;;;;;;5063464;28;20048;-78
2023/08/19 13:57:43;;;;;;;1.73;0.80;;;;;;;;;;5063735;28;20597;-77
2023/08/19 14:00:16;;;;;;;0.90;0.60;;;;;;;;;;5063557;28;20529;-76
2023/08/19 14:02:47;;;;;;;2.45;0.60;;;;;;;;;;5063385;28;20048;-76
2023/08/19 14:05:18;;;;;;;3.42;0.60;;;;;;;;;;5063557;28;20064;-78
2023/08/19 14:07:48;;;;;;;2.70;0.70;;;;;;;;;;5062152;28;20697;-78
2023/08/19 14:10:20;;;;;;;0.73;0.47;;;;;;;;;;5063727;28;20051;-76
2023/08/19 14:12:51;;;;;;;1.05;0.70;;;;;;;;;;5063724;28;20055;-77
2023/08/19 14:15:22;;;;;;;2.25;0.60;;;;;;;;;;5063630;28;20052;-77
2023/08/19 14:17:53;;;;;;;1.50;0.50;;;;;;;;;;5063881;28;20055;-77
2023/08/19 14:20:27;;;;;;;2.65;0.52;;;;;;;;;;5063337;28;20068;-76
2023/08/19 14:22:58;;;;;;;1.20;0.75;;;;;;;;;;5063227;28;20057;-77
2023/08/19 14:25:28;;;;;;;1.25;0.50;;;;;;;;;;5063433;28;20052;-80
2023/08/19 14:27:59;;;;;;;1.15;0.45;;;;;;;;;;5063541;28;20040;-76
2023/08/19 14:30:29;;;;;;;2.60;0.70;;;;;;;;;;5063379;28;20825;-77
2023/08/19 14:32:59;;;;;;;1.40;0.73;;;;;;;;;;5063236;28;20052;-78
2023/08/19 14:35:31;;;;;;;0.52;0.50;;;;;;;;;;5062868;28;20044;-75
2023/08/19 14:38:02;;;;;;;0.90;0.57;;;;;;;;;;5062210;28;20060;-77
2023/08/19 14:40:32;;;;;;;1.38;0.55;;;;;;;;;;5062976;28;20521;-77
2023/08/19 14:43:02;;;;;;;3.10;0.80;;;;;;;;;;5062869;28;20056;-76
2023/08/19 14:45:34;;;;;;;0.63;0.30;;;;;;;;;;5062458;28;20044;-74
2023/08/19 14:48:05;;;;;;;7.47;0.93;;;;;;;;;;5061172;28;21146;-75
2023/08/19 14:50:36;;;;;;;4.20;0.60;;;;;;;;;;5062712;28;20051;-76
2023/08/19 14:53:09;;;;;;;1.13;0.50;;;;;;;;;;5062030;28;20087;-75
2023/08/19 14:55:39;;;;;;;1.60;0.70;;;;;;;;;;5062492;28;20049;-76
2023/08/19 14:58:11;;;;;;;4.57;0.80;;;;;;;;;;5063060;28;20518;-76
2023/08/19 15:00:42;;;;;;;1.55;0.60;;;;;;;;;;5062678;28;20056;-80
2023/08/19 15:03:13;;;;;;;1.02;0.60;;;;;;;;;;5062538;28;20075;-77
2023/08/19 15:05:44;;;;;;;0.55;0.43;;;;;;;;;;5061073;28;20648;-76
2023/08/19 15:08:14;;;;;;;2.67;0.93;;;;;;;;;;5062741;28;20032;-76
2023/08/19 15:10:44;;;;;;;0.75;0.43;;;;;;;;;;5062475;28;20044;-77